createdAt,value
2019-05-10T00:03:23.793Z,12.53
2019-05-10T00:07:26.069Z,20.93
2019-05-10T00:11:28.298Z,13.40
2019-05-10T00:15:30.486Z,10.57
2019-05-10T00:19:32.899Z,13.57
2019-05-10T00:23:35.184Z,12.00
2019-05-10T00:27:37.588Z,9.87
2019-05-10T00:31:39.854Z,13.67
2019-05-10T00:35:42.182Z,15.23
2019-05-10T00:39:44.383Z,12.33
2019-05-10T00:43:46.562Z,10.77
2019-05-10T00:47:48.872Z,12.90
2019-05-10T00:51:51.289Z,7.40
2019-05-10T00:55:53.545Z,9.63
2019-05-10T00:59:56.149Z,11.93
2019-05-10T01:03:58.680Z,7.07
2019-05-10T01:08:01.138Z,6.30
2019-05-10T01:12:03.642Z,7.40
2019-05-10T01:16:05.977Z,7.93
2019-05-10T01:20:08.490Z,5.40
2019-05-10T01:24:11.322Z,7.73
2019-05-10T01:28:13.779Z,5.03
2019-05-10T01:32:17.063Z,4.70
2019-05-10T01:36:19.718Z,4.50
2019-05-10T01:40:22.734Z,3.70
2019-05-10T01:44:25.204Z,5.13
2019-05-10T01:48:27.694Z,3.40
2019-05-10T01:52:30.132Z,3.50
2019-05-10T01:56:32.612Z,3.47
2019-05-10T02:00:35.043Z,3.33
2019-05-10T02:04:37.573Z,3.17
2019-05-10T02:08:39.910Z,3.50
2019-05-10T02:12:42.341Z,3.43
2019-05-10T02:16:44.882Z,3.10
2019-05-10T02:20:47.535Z,3.87
2019-05-10T02:24:49.995Z,4.73
2019-05-10T02:28:52.598Z,4.10
2019-05-10T02:32:54.917Z,3.80
2019-05-10T02:36:57.329Z,3.40
2019-05-10T02:40:59.887Z,2.83
2019-05-10T02:45:02.417Z,3.33
2019-05-10T02:49:04.697Z,3.17
2019-05-10T02:53:07.178Z,2.87
2019-05-10T02:57:09.635Z,1.80
2019-05-10T03:01:12.390Z,3.40
2019-05-10T03:05:14.786Z,3.13
2019-05-10T03:09:17.225Z,5.17
2019-05-10T03:13:19.545Z,2.90
2019-05-10T03:17:22.440Z,5.13
2019-05-10T03:21:25.149Z,3.20
2019-05-10T03:25:27.835Z,2.80
2019-05-10T03:29:31.374Z,3.37
2019-05-10T03:33:34.097Z,3.00
2019-05-10T03:37:36.591Z,2.63
2019-05-10T03:41:39.175Z,3.60
2019-05-10T03:45:41.478Z,5.23
2019-05-10T03:49:44.126Z,3.00
2019-05-10T03:53:46.498Z,3.23
2019-05-10T03:57:48.973Z,2.60
2019-05-10T04:01:51.562Z,3.80
2019-05-10T04:05:54.150Z,2.80
2019-05-10T04:09:56.562Z,3.60
2019-05-10T04:13:59.147Z,3.37
2019-05-10T04:18:01.425Z,3.47
2019-05-10T04:22:04.167Z,3.87
2019-05-10T04:26:06.599Z,2.73
2019-05-10T04:30:09.100Z,3.30
2019-05-10T04:34:11.450Z,2.27
2019-05-10T04:38:14.132Z,3.07
2019-05-10T04:42:16.417Z,3.70
2019-05-10T04:46:19.191Z,3.20
2019-05-10T04:50:21.613Z,2.83
2019-05-10T04:54:24.108Z,3.70
2019-05-10T04:58:26.382Z,4.50
2019-05-10T05:02:28.798Z,3.40
2019-05-10T05:06:31.196Z,4.27
2019-05-10T05:10:33.787Z,3.43
2019-05-10T05:14:36.193Z,4.00
2019-05-10T05:18:38.679Z,4.30
2019-05-10T05:22:40.978Z,3.23
2019-05-10T05:26:43.396Z,3.87
2019-05-10T05:30:45.787Z,3.80
2019-05-10T05:34:48.182Z,3.07
2019-05-10T05:38:51.203Z,2.90
2019-05-10T05:42:53.820Z,5.80
2019-05-10T05:46:56.190Z,4.37
2019-05-10T05:50:58.801Z,3.43
2019-05-10T05:55:01.373Z,2.83
2019-05-10T05:59:03.884Z,2.70
2019-05-10T06:03:06.337Z,2.73
2019-05-10T06:07:08.927Z,2.80
2019-05-10T06:11:11.383Z,2.80
2019-05-10T06:15:14.037Z,2.40
2019-05-10T06:19:20.482Z,2.37
2019-05-10T06:23:20.279Z,2.77
2019-05-10T06:27:22.937Z,2.77
2019-05-10T06:31:25.541Z,3.53
2019-05-10T06:35:27.991Z,3.97
2019-05-10T06:39:30.580Z,3.30
2019-05-10T06:43:32.897Z,2.93
2019-05-10T06:47:35.896Z,2.70
2019-05-10T06:51:42.768Z,3.60
2019-05-10T06:55:42.200Z,4.77
2019-05-10T06:59:44.598Z,2.90
2019-05-10T07:03:46.982Z,3.03
2019-05-10T07:07:49.401Z,2.67
2019-05-10T07:11:52.594Z,2.77
2019-05-10T07:15:54.938Z,2.97
2019-05-10T07:19:57.532Z,3.33
2019-05-10T07:23:59.972Z,2.87
2019-05-10T07:28:02.396Z,3.00
2019-05-10T07:32:04.779Z,4.17
2019-05-10T07:36:14.432Z,3.07
2019-05-10T07:40:11.187Z,2.93
2019-05-10T07:44:13.599Z,3.43
2019-05-10T07:48:15.916Z,3.00
2019-05-10T07:52:18.346Z,2.83
2019-05-10T07:56:20.776Z,3.23
2019-05-10T08:00:25.308Z,4.30
2019-05-10T08:04:33.228Z,4.17
2019-05-10T08:08:30.911Z,3.60
2019-05-10T08:12:35.127Z,4.17
2019-05-10T08:16:38.704Z,4.80
2019-05-10T08:20:49.295Z,6.20
2019-05-10T08:24:52.208Z,4.60
2019-05-10T08:28:48.441Z,5.90
2019-05-10T08:32:52.615Z,5.07
2019-05-10T08:36:54.983Z,5.50
2019-05-10T08:40:57.621Z,4.43
2019-05-10T08:45:05.433Z,5.37
2019-05-10T08:49:03.674Z,6.77
2019-05-10T08:53:10.855Z,5.50
2019-05-10T08:57:12.669Z,8.57
2019-05-10T09:01:25.820Z,5.30
2019-05-10T09:05:21.040Z,7.53
2019-05-10T09:09:22.793Z,6.53
2019-05-10T09:13:28.803Z,6.13
2019-05-10T09:17:28.899Z,8.70
2019-05-10T09:21:32.217Z,6.50
2019-05-10T09:25:34.571Z,7.43
2019-05-10T09:29:37.493Z,6.47
2019-05-10T09:33:43.376Z,7.60
2019-05-10T09:37:47.696Z,7.60
2019-05-10T09:41:47.552Z,5.90
2019-05-10T09:45:50.031Z,8.60
2019-05-10T09:49:57.246Z,7.77
2019-05-10T09:53:57.615Z,7.07
2019-05-10T09:58:00.070Z,6.53
2019-05-10T10:02:05.055Z,7.23
2019-05-10T10:06:10.271Z,7.03
2019-05-10T10:10:12.668Z,7.10
2019-05-10T10:14:13.994Z,6.30
2019-05-10T10:18:21.369Z,7.53
2019-05-10T10:22:20.262Z,8.13
2019-05-10T10:26:22.709Z,8.37
2019-05-10T10:30:27.130Z,13.43
2019-05-10T10:34:32.769Z,7.47
2019-05-10T10:42:51.863Z,9.20
2019-05-10T10:46:54.479Z,8.20
2019-05-10T10:50:58.595Z,8.10
2019-05-10T10:55:05.467Z,7.60
2019-05-10T10:59:07.360Z,8.13
2019-05-10T11:03:08.503Z,8.00
2019-05-10T11:07:11.176Z,7.60
2019-05-10T11:11:13.751Z,7.57
2019-05-10T11:15:16.393Z,7.90
2019-05-10T11:19:21.285Z,9.30
2019-05-10T11:23:32.835Z,8.93
2019-05-10T11:27:27.544Z,9.13
2019-05-10T11:31:31.195Z,8.93
2019-05-10T11:35:34.683Z,9.87
2019-05-10T11:39:45.143Z,10.37
2019-05-10T11:43:41.914Z,10.67
2019-05-10T11:47:48.099Z,10.37
2019-05-10T11:51:54.799Z,9.87
2019-05-10T11:55:52.486Z,10.93
2019-05-10T11:59:54.720Z,9.87
2019-05-10T12:03:57.226Z,10.23
2019-05-10T12:08:01.960Z,14.03
2019-05-10T12:12:03.624Z,13.77
2019-05-10T12:16:06.083Z,19.07
2019-05-10T12:20:16.374Z,18.07
2019-05-10T12:24:32.548Z,14.57
2019-05-10T12:28:24.439Z,21.03
2019-05-10T12:32:21.324Z,23.53
2019-05-10T12:36:27.552Z,19.77
2019-05-10T12:40:27.484Z,20.80
2019-05-10T12:44:33.157Z,16.00
2019-05-10T12:48:35.925Z,14.83
2019-05-10T12:52:37.747Z,24.10
2019-05-10T12:56:43.952Z,29.63
2019-05-10T13:00:46.523Z,23.73
2019-05-10T13:04:52.717Z,22.63
2019-05-10T13:08:51.587Z,17.80
2019-05-10T13:12:53.916Z,17.10
2019-05-10T13:16:56.363Z,15.97
2019-05-10T13:20:58.915Z,15.87
2019-05-10T13:25:01.448Z,15.17
2019-05-10T13:29:07.831Z,12.97
2019-05-10T13:33:07.565Z,16.90
2019-05-10T13:37:13.704Z,14.33
2019-05-10T13:41:17.775Z,13.63
2019-05-10T13:45:17.866Z,12.50
2019-05-10T13:49:20.392Z,11.50
2019-05-10T13:53:23.199Z,12.13
2019-05-10T13:57:26.321Z,12.27
2019-05-10T14:01:28.628Z,12.20
2019-05-10T14:05:35.450Z,12.23
2019-05-10T14:09:37.209Z,14.87
2019-05-10T14:13:41.636Z,11.03
2019-05-10T14:17:43.896Z,10.53
2019-05-10T14:21:46.362Z,9.20
2019-05-10T14:25:49.003Z,10.40
2019-05-10T14:29:51.393Z,12.63
2019-05-10T14:34:14.982Z,10.40
2019-05-10T14:38:07.170Z,10.70
2019-05-10T14:42:01.409Z,10.87
2019-05-10T14:46:04.041Z,13.50
2019-05-10T14:50:06.499Z,12.33
2019-05-10T14:54:09.099Z,16.03
2019-05-10T14:58:11.440Z,16.53
2019-05-10T15:02:16.791Z,12.60
2019-05-10T15:06:17.656Z,16.90
2019-05-10T15:10:20.111Z,16.87
2019-05-10T15:14:22.423Z,18.20
2019-05-10T15:18:24.698Z,14.57
2019-05-10T15:22:27.068Z,18.97
2019-05-10T15:26:29.930Z,21.40
2019-05-10T15:30:32.203Z,16.87
2019-05-10T15:34:34.625Z,14.17
2019-05-10T15:38:39.563Z,13.60
2019-05-10T15:42:40.726Z,13.30
2019-05-10T15:46:43.164Z,13.23
2019-05-10T15:50:45.662Z,17.80
2019-05-10T15:54:48.077Z,16.00
2019-05-10T15:58:50.449Z,15.50
2019-05-10T16:02:53.411Z,14.73
2019-05-10T16:06:55.986Z,13.50
2019-05-10T16:10:58.619Z,13.40
2019-05-10T16:15:01.091Z,14.00
2019-05-10T16:19:03.492Z,12.80
2019-05-10T16:23:08.890Z,13.77
2019-05-10T16:27:09.902Z,15.50
2019-05-10T16:31:12.368Z,11.50
2019-05-10T16:35:14.869Z,16.50
2019-05-10T16:39:17.450Z,15.40
2019-05-10T16:43:24.262Z,16.43
2019-05-10T16:47:23.761Z,15.50
2019-05-10T16:51:26.151Z,12.70
2019-05-10T16:55:28.688Z,12.90
2019-05-10T16:59:31.441Z,12.27
2019-05-10T17:03:34.031Z,14.23
2019-05-10T17:07:36.255Z,17.60
2019-05-10T17:11:41.436Z,14.13
2019-05-10T17:15:42.696Z,16.60
2019-05-10T17:19:45.133Z,15.20
2019-05-10T17:23:48.656Z,16.27
2019-05-10T17:27:57.670Z,15.60
2019-05-10T17:31:55.055Z,15.30
2019-05-10T17:36:07.907Z,15.87
2019-05-10T17:40:04.641Z,13.60
2019-05-10T17:44:05.041Z,13.97
2019-05-10T17:48:08.560Z,15.00
2019-05-10T17:52:12.633Z,12.30
2019-05-10T17:56:15.006Z,12.47
2019-05-10T18:00:17.487Z,13.37
2019-05-10T18:04:19.824Z,18.47
2019-05-10T18:08:22.311Z,24.10
2019-05-10T18:12:27.163Z,22.93
2019-05-10T18:16:28.828Z,16.00
2019-05-10T18:20:40.978Z,14.73
2019-05-10T18:24:36.474Z,14.83
2019-05-10T18:28:38.997Z,21.70
2019-05-10T18:32:41.483Z,20.13
2019-05-10T18:36:51.977Z,24.97
2019-05-10T18:40:47.891Z,18.90
2019-05-10T18:44:52.123Z,15.27
2019-05-10T18:48:56.617Z,15.13
2019-05-10T18:52:59.079Z,14.57
2019-05-10T18:57:04.805Z,14.80
2019-05-10T19:01:05.894Z,12.20
2019-05-10T19:05:08.330Z,11.33
2019-05-10T19:09:10.628Z,12.13
2019-05-10T19:13:13.448Z,12.93
2019-05-10T19:17:16.293Z,12.10
2019-05-10T19:21:18.851Z,12.77
2019-05-10T19:25:21.230Z,12.80
2019-05-10T19:29:27.234Z,12.60
2019-05-10T19:33:29.733Z,15.53
2019-05-10T19:37:34.347Z,12.40
2019-05-10T19:41:35.308Z,10.70
2019-05-10T19:45:37.851Z,10.40
2019-05-10T19:49:40.422Z,10.87
2019-05-10T19:53:43.967Z,9.53
2019-05-10T19:57:49.504Z,9.80
2019-05-10T20:01:50.373Z,21.23
2019-05-10T20:05:53.277Z,14.33
2019-05-10T20:09:57.110Z,12.63
2019-05-10T20:13:59.576Z,13.97
2019-05-10T20:18:05.091Z,12.13
2019-05-10T20:22:07.708Z,15.40
2019-05-10T20:26:10.196Z,12.70
2019-05-10T20:30:12.643Z,10.67
2019-05-10T20:34:15.256Z,10.63
2019-05-10T20:38:17.583Z,9.60
2019-05-10T20:42:20.200Z,13.33
2019-05-10T20:46:22.585Z,9.23
2019-05-10T20:50:25.173Z,9.80
2019-05-10T20:54:27.689Z,10.17
2019-05-10T20:58:30.255Z,9.10
2019-05-10T21:02:32.612Z,9.83
2019-05-10T21:06:35.186Z,10.27
2019-05-10T21:10:37.554Z,9.83
2019-05-10T21:14:40.093Z,8.60
2019-05-10T21:18:42.777Z,8.53
2019-05-10T21:22:45.111Z,9.13
2019-05-10T21:26:47.449Z,8.20
2019-05-10T21:30:53.267Z,8.50
2019-05-10T21:34:53.698Z,7.70
2019-05-10T21:38:56.187Z,7.90
2019-05-10T21:42:58.447Z,8.63
2019-05-10T21:47:00.837Z,8.20
2019-05-10T21:51:03.313Z,7.87
2019-05-10T21:55:05.830Z,9.00
2019-05-10T21:59:08.448Z,7.67
2019-05-10T22:03:10.932Z,9.33
2019-05-10T22:07:13.368Z,8.30
2019-05-10T22:11:16.079Z,8.50
2019-05-10T22:15:18.354Z,8.50
2019-05-10T22:19:20.992Z,7.30
2019-05-10T22:23:23.764Z,7.67
2019-05-10T22:27:26.080Z,7.60
2019-05-10T22:31:28.683Z,7.40
2019-05-10T22:35:31.095Z,7.67
2019-05-10T22:39:33.644Z,7.20
2019-05-10T22:43:35.994Z,8.60
2019-05-10T22:47:38.329Z,8.20
2019-05-10T22:51:40.885Z,8.00
2019-05-10T22:55:43.230Z,7.60
2019-05-10T22:59:46.010Z,7.60
2019-05-10T23:03:48.651Z,7.37
2019-05-10T23:07:51.132Z,8.20
2019-05-10T23:11:53.534Z,7.10
2019-05-10T23:15:56.195Z,6.33
2019-05-10T23:19:58.640Z,7.23
2019-05-10T23:24:01.479Z,7.30
2019-05-10T23:28:03.955Z,7.10
2019-05-10T23:32:06.602Z,6.60
2019-05-10T23:36:09.036Z,7.57
2019-05-10T23:40:11.501Z,6.33
2019-05-10T23:44:14.007Z,7.50
2019-05-10T23:48:16.580Z,8.40
2019-05-10T23:52:19.080Z,7.27
2019-05-10T23:56:21.764Z,7.83
